createdAt,value
2024-04-30T00:01:47.361Z,98127.97
2024-04-30T00:04:14.327Z,98130.59
2024-04-30T00:06:42.226Z,98127.34
2024-04-30T00:09:09.109Z,98129.81
2024-04-30T00:11:43.598Z,98125.19
2024-04-30T00:14:10.926Z,98122.47
2024-04-30T00:16:45.378Z,98121.16
2024-04-30T00:19:12.400Z,98132.59
2024-04-30T00:21:40.042Z,98124.56
2024-04-30T00:24:07.291Z,98130.50
2024-04-30T00:26:34.039Z,98127.41
2024-04-30T00:29:01.046Z,98131.34
2024-04-30T00:31:28.304Z,98137.50
2024-04-30T00:33:55.215Z,98140.53
2024-04-30T00:36:24.730Z,98138.84
2024-04-30T00:38:51.613Z,98128.16
2024-04-30T00:41:18.298Z,98131.66
2024-04-30T00:43:45.048Z,98134.94
2024-04-30T00:46:11.869Z,98136.59
2024-04-30T00:48:40.031Z,98142.00
2024-04-30T00:51:11.930Z,98149.09
2024-04-30T00:53:40.994Z,98140.22
2024-04-30T00:56:09.134Z,98151.63
2024-04-30T00:58:37.242Z,98154.75
2024-04-30T01:01:05.074Z,98141.69
2024-04-30T01:03:31.935Z,98148.00
2024-04-30T01:05:58.674Z,98148.28
2024-04-30T01:08:26.275Z,98152.38
2024-04-30T01:10:53.210Z,98144.47
2024-04-30T01:13:20.123Z,98142.69
2024-04-30T01:15:48.142Z,98146.47
2024-04-30T01:18:15.450Z,98148.38
2024-04-30T01:20:42.370Z,98148.00
2024-04-30T01:23:09.099Z,98148.50
2024-04-30T01:25:35.999Z,98142.09
2024-04-30T01:28:03.090Z,98147.06
2024-04-30T01:30:29.863Z,98146.56
2024-04-30T01:32:56.779Z,98154.53
2024-04-30T01:35:23.568Z,98140.66
2024-04-30T01:37:50.314Z,98139.25
2024-04-30T01:40:17.367Z,98141.38
2024-04-30T01:42:44.195Z,98141.22
2024-04-30T01:45:10.879Z,98148.66
2024-04-30T01:47:37.619Z,98147.75
2024-04-30T01:50:06.984Z,98147.47
2024-04-30T01:52:33.987Z,98144.78
2024-04-30T01:55:00.885Z,98145.19
2024-04-30T01:57:27.656Z,98139.84
2024-04-30T01:59:54.369Z,98135.34
2024-04-30T02:02:21.091Z,98141.59
2024-04-30T02:04:53.116Z,98141.81
2024-04-30T02:07:20.935Z,98141.97
2024-04-30T02:09:47.756Z,98144.09
2024-04-30T02:12:14.564Z,98149.91
2024-04-30T02:14:41.863Z,98152.59
2024-04-30T02:17:08.692Z,98150.34
2024-04-30T02:19:35.529Z,98148.09
2024-04-30T02:22:02.330Z,98145.06
2024-04-30T02:24:29.067Z,98137.50
2024-04-30T02:26:55.795Z,98136.25
2024-04-30T02:29:22.683Z,98130.16
2024-04-30T02:32:07.778Z,98135.34
2024-04-30T02:34:34.624Z,98131.72
2024-04-30T02:37:01.514Z,98129.28
2024-04-30T02:39:28.368Z,98131.09
2024-04-30T02:41:55.111Z,98123.16
2024-04-30T02:44:21.810Z,98131.72
2024-04-30T02:46:48.671Z,98129.47
2024-04-30T02:49:15.483Z,98120.38
2024-04-30T02:51:42.501Z,98127.91
2024-04-30T02:54:09.310Z,98120.38
2024-04-30T02:56:36.008Z,98117.59
2024-04-30T02:59:03.757Z,98122.00
2024-04-30T03:01:30.533Z,98125.13
2024-04-30T03:03:57.403Z,98110.50
2024-04-30T03:06:24.136Z,98117.31
2024-04-30T03:08:51.158Z,98118.16
2024-04-30T03:11:17.950Z,98116.03
2024-04-30T03:13:45.478Z,98115.88
2024-04-30T03:16:12.392Z,98117.03
2024-04-30T03:18:42.245Z,98119.31
2024-04-30T03:21:12.385Z,98119.59
2024-04-30T03:23:39.838Z,98121.28
2024-04-30T03:26:06.778Z,98118.19
2024-04-30T03:28:34.092Z,98118.59
2024-04-30T03:31:02.688Z,98120.00
2024-04-30T03:33:29.519Z,98117.59
2024-04-30T03:35:56.409Z,98120.16
2024-04-30T03:38:23.170Z,98120.31
2024-04-30T03:40:49.926Z,98124.81
2024-04-30T03:43:16.679Z,98114.63
2024-04-30T03:45:43.472Z,98116.75
2024-04-30T03:48:10.198Z,98119.59
2024-04-30T03:50:36.952Z,98117.59
2024-04-30T03:53:03.841Z,98113.34
2024-04-30T03:55:30.598Z,98111.34
2024-04-30T03:57:57.339Z,98110.78
2024-04-30T04:00:24.050Z,98113.03
2024-04-30T04:02:50.775Z,98116.06
2024-04-30T04:05:17.492Z,98112.47
2024-04-30T04:07:44.252Z,98113.66
2024-04-30T04:10:10.994Z,98109.66
2024-04-30T04:12:56.344Z,98106.28
2024-04-30T04:15:23.086Z,98107.69
2024-04-30T04:17:50.097Z,98102.03
2024-04-30T04:20:16.887Z,98114.06
2024-04-30T04:22:43.652Z,98113.91
2024-04-30T04:25:10.373Z,98122.16
2024-04-30T04:27:37.064Z,98118.72
2024-04-30T04:30:03.943Z,98128.63
2024-04-30T04:32:31.659Z,98127.50
2024-04-30T04:34:58.384Z,98124.34
2024-04-30T04:37:27.327Z,98129.75
2024-04-30T04:39:54.820Z,98128.44
2024-04-30T04:42:21.608Z,98124.03
2024-04-30T04:44:48.300Z,98126.78
2024-04-30T04:47:15.165Z,98126.75
2024-04-30T04:49:42.007Z,98135.50
2024-04-30T04:52:08.781Z,98128.88
2024-04-30T04:54:35.547Z,98133.88
2024-04-30T04:57:02.223Z,98131.56
2024-04-30T04:59:28.945Z,98130.03
2024-04-30T05:01:55.811Z,98137.94
2024-04-30T05:04:22.734Z,98130.34
2024-04-30T05:06:50.712Z,98135.59
2024-04-30T05:09:18.159Z,98133.94
2024-04-30T05:11:46.742Z,98134.28
2024-04-30T05:14:13.565Z,98132.16
2024-04-30T05:16:40.320Z,98131.13
2024-04-30T05:19:07.122Z,98137.00
2024-04-30T05:21:33.863Z,98136.94
2024-04-30T05:24:00.633Z,98138.34
2024-04-30T05:26:27.319Z,98133.81
2024-04-30T05:28:54.004Z,98142.66
2024-04-30T05:31:20.835Z,98137.56
2024-04-30T05:33:47.767Z,98143.16
2024-04-30T05:36:14.526Z,98146.06
2024-04-30T05:38:41.199Z,98145.03
2024-04-30T05:41:07.906Z,98146.19
2024-04-30T05:43:34.741Z,98146.03
2024-04-30T05:46:01.794Z,98156.28
2024-04-30T05:48:28.630Z,98156.03
2024-04-30T05:50:55.351Z,98152.84
2024-04-30T05:53:22.014Z,98160.97
2024-04-30T05:55:48.720Z,98167.41
2024-04-30T05:58:15.501Z,98166.22
2024-04-30T06:00:42.248Z,98166.00
2024-04-30T06:03:09.180Z,98162.25
2024-04-30T06:05:36.012Z,98170.22
2024-04-30T06:08:02.813Z,98168.63
2024-04-30T06:10:29.570Z,98173.47
2024-04-30T06:12:56.314Z,98171.84
2024-04-30T06:15:24.085Z,98171.09
2024-04-30T06:17:50.891Z,98174.91
2024-04-30T06:20:17.673Z,98172.47
2024-04-30T06:22:44.440Z,98178.16
2024-04-30T06:25:11.257Z,98173.59
2024-04-30T06:27:37.969Z,98174.03
2024-04-30T06:30:05.171Z,98165.53
2024-04-30T06:32:31.930Z,98160.75
2024-04-30T06:34:58.699Z,98163.13
2024-04-30T06:37:25.458Z,98161.78
2024-04-30T06:39:52.219Z,98163.28
2024-04-30T06:42:18.924Z,98155.66
2024-04-30T06:44:45.664Z,98162.72
2024-04-30T06:47:13.124Z,98160.53
2024-04-30T06:49:39.912Z,98162.28
2024-04-30T06:52:06.869Z,98150.06
2024-04-30T06:54:33.914Z,98158.91
2024-04-30T06:57:00.741Z,98161.25
2024-04-30T06:59:27.518Z,98159.88
2024-04-30T07:01:54.247Z,98159.53
2024-04-30T07:04:21.159Z,98154.97
2024-04-30T07:06:47.973Z,98155.31
2024-04-30T07:09:14.669Z,98164.69
2024-04-30T07:11:42.858Z,98163.38
2024-04-30T07:14:09.618Z,98160.31
2024-04-30T07:16:48.390Z,98164.78
2024-04-30T07:19:19.341Z,98162.88
2024-04-30T07:21:46.105Z,98171.16
2024-04-30T07:24:12.844Z,98169.81
2024-04-30T07:26:39.660Z,98170.97
2024-04-30T07:29:06.389Z,98172.38
2024-04-30T07:31:33.186Z,98181.22
2024-04-30T07:34:00.105Z,98178.84
2024-04-30T07:36:26.850Z,98173.75
2024-04-30T07:38:53.553Z,98180.84
2024-04-30T07:41:20.237Z,98173.91
2024-04-30T07:43:47.597Z,98172.53
2024-04-30T07:46:14.563Z,98182.47
2024-04-30T07:48:41.347Z,98188.25
2024-04-30T07:51:08.150Z,98182.00
2024-04-30T07:53:34.836Z,98175.13
2024-04-30T07:56:01.540Z,98169.97
2024-04-30T07:58:28.368Z,98175.28
2024-04-30T08:00:55.136Z,98177.66
2024-04-30T08:03:22.042Z,98172.56
2024-04-30T08:05:49.368Z,98171.53
2024-04-30T08:08:20.039Z,98179.16
2024-04-30T08:10:48.295Z,98182.09
2024-04-30T08:13:15.078Z,98171.75
2024-04-30T08:15:41.946Z,98172.00
2024-04-30T08:18:11.396Z,98182.53
2024-04-30T08:20:38.121Z,98170.53
2024-04-30T08:23:04.979Z,98179.19
2024-04-30T08:25:31.835Z,98170.31
2024-04-30T08:27:58.699Z,98175.97
2024-04-30T08:30:25.410Z,98169.31
2024-04-30T08:32:52.711Z,98175.91
2024-04-30T08:35:19.524Z,98178.69
2024-04-30T08:37:54.015Z,98178.03
2024-04-30T08:40:25.264Z,98179.22
2024-04-30T08:42:53.256Z,98168.28
2024-04-30T08:45:22.706Z,98171.63
2024-04-30T08:47:52.271Z,98175.59
2024-04-30T08:50:25.486Z,98181.28
2024-04-30T08:52:55.680Z,98177.66
2024-04-30T08:55:23.627Z,98179.31
2024-04-30T08:57:50.610Z,98179.75
2024-04-30T09:00:17.505Z,98167.09
2024-04-30T09:02:52.336Z,98177.00
2024-04-30T09:05:22.001Z,98163.44
2024-04-30T09:07:48.894Z,98176.06
2024-04-30T09:10:15.657Z,98173.16
2024-04-30T09:12:42.346Z,98168.16
2024-04-30T09:15:17.748Z,98171.59
2024-04-30T09:17:44.576Z,98162.88
2024-04-30T09:20:11.715Z,98163.50
2024-04-30T09:23:05.266Z,98163.41
2024-04-30T09:25:34.916Z,98161.38
2024-04-30T09:28:02.636Z,98155.41
2024-04-30T09:30:29.370Z,98155.03
2024-04-30T09:33:06.876Z,98151.09
2024-04-30T09:35:33.693Z,98150.78
2024-04-30T09:38:08.368Z,98151.47
2024-04-30T09:40:36.502Z,98153.88
2024-04-30T09:43:03.741Z,98142.53
2024-04-30T09:45:31.659Z,98143.28
2024-04-30T09:48:01.449Z,98139.72
2024-04-30T09:50:30.756Z,98137.59
2024-04-30T09:52:59.575Z,98132.69
2024-04-30T09:55:27.491Z,98131.88
2024-04-30T09:57:54.679Z,98136.69
2024-04-30T10:00:26.250Z,98135.13
2024-04-30T10:03:00.585Z,98127.31
2024-04-30T10:05:33.258Z,98133.88
2024-04-30T10:08:01.880Z,98121.47
2024-04-30T10:10:30.675Z,98120.44
2024-04-30T10:13:10.173Z,98128.81
2024-04-30T10:15:37.423Z,98122.91
2024-04-30T10:18:04.370Z,98114.50
2024-04-30T10:20:33.329Z,98110.00
2024-04-30T10:23:02.641Z,98101.19
2024-04-30T10:25:29.574Z,98101.56
2024-04-30T10:28:06.234Z,98091.88
2024-04-30T10:30:33.199Z,98094.22
2024-04-30T10:33:00.192Z,98092.03
2024-04-30T10:35:27.027Z,98087.00
2024-04-30T10:37:53.812Z,98082.56
2024-04-30T10:40:23.053Z,98078.69
2024-04-30T10:42:49.854Z,98075.94
2024-04-30T10:45:26.136Z,98081.63
2024-04-30T10:47:53.100Z,98074.75
2024-04-30T10:50:21.009Z,98076.44
2024-04-30T10:52:48.082Z,98070.38
2024-04-30T10:55:18.845Z,98060.75
2024-04-30T10:57:45.929Z,98063.44
2024-04-30T11:00:12.947Z,98063.63
2024-04-30T11:02:39.770Z,98065.13
2024-04-30T11:05:15.749Z,98077.75
2024-04-30T11:07:53.596Z,98058.44
2024-04-30T11:10:30.605Z,98059.06
2024-04-30T11:13:04.581Z,98051.91
2024-04-30T11:15:31.814Z,98049.63
2024-04-30T11:17:58.754Z,98037.06
2024-04-30T11:20:25.620Z,98031.09
2024-04-30T11:22:52.383Z,98026.41
2024-04-30T11:25:19.171Z,98022.00
2024-04-30T11:27:45.880Z,98029.16
2024-04-30T11:30:12.755Z,98011.81
2024-04-30T11:32:39.553Z,98016.69
2024-04-30T11:35:06.414Z,98013.97
2024-04-30T11:37:34.668Z,98002.28
2024-04-30T11:40:01.494Z,98002.19
2024-04-30T11:42:34.428Z,97991.47
2024-04-30T11:45:06.332Z,97992.75
2024-04-30T11:47:33.145Z,97982.56
2024-04-30T11:49:59.974Z,97992.28
2024-04-30T11:52:26.784Z,97978.13
2024-04-30T11:54:53.506Z,97966.50
2024-04-30T11:57:20.242Z,97966.81
2024-04-30T11:59:47.178Z,97963.91
2024-04-30T12:02:14.035Z,97955.59
2024-04-30T12:04:41.075Z,97957.97
2024-04-30T12:07:08.042Z,97956.72
2024-04-30T12:09:34.892Z,97961.72
2024-04-30T12:12:01.596Z,97957.66
2024-04-30T12:14:28.472Z,97953.56
2024-04-30T12:16:55.336Z,97954.41
2024-04-30T12:19:22.190Z,97945.16
2024-04-30T12:21:48.933Z,97941.25
2024-04-30T12:24:15.637Z,97939.63
2024-04-30T12:26:42.358Z,97942.63
2024-04-30T12:29:09.172Z,97932.94
2024-04-30T12:31:37.849Z,97926.00
2024-04-30T12:34:04.643Z,97927.34
2024-04-30T12:36:32.619Z,97917.50
2024-04-30T12:38:59.530Z,97918.47
2024-04-30T12:41:26.261Z,97911.47
2024-04-30T12:43:52.988Z,97910.91
2024-04-30T12:46:20.153Z,97906.00
2024-04-30T12:48:47.056Z,97897.75
2024-04-30T12:51:16.916Z,97896.56
2024-04-30T12:53:43.744Z,97891.63
2024-04-30T12:56:10.537Z,97891.56
2024-04-30T12:58:37.664Z,97885.56
2024-04-30T13:01:04.672Z,97879.59
2024-04-30T13:03:31.384Z,97875.59
2024-04-30T13:05:58.324Z,97865.91
2024-04-30T13:08:25.101Z,97869.34
2024-04-30T13:10:51.925Z,97866.94
2024-04-30T13:13:18.920Z,97866.91
2024-04-30T13:15:45.629Z,97854.06
2024-04-30T13:18:12.462Z,97847.25
2024-04-30T13:20:39.919Z,97855.19
2024-04-30T13:23:06.685Z,97842.16
2024-04-30T13:25:33.530Z,97849.25
2024-04-30T13:28:01.826Z,97837.84
2024-04-30T13:30:28.577Z,97834.72
2024-04-30T13:32:55.373Z,97825.06
2024-04-30T13:35:22.329Z,97825.88
2024-04-30T13:37:49.053Z,97835.59
2024-04-30T13:40:15.784Z,97817.97
2024-04-30T13:42:42.512Z,97825.56
2024-04-30T13:45:09.257Z,97803.81
2024-04-30T13:47:36.031Z,97809.06
2024-04-30T13:50:02.792Z,97809.47
2024-04-30T13:52:29.511Z,97804.97
2024-04-30T13:54:56.235Z,97808.63
2024-04-30T13:57:22.964Z,97798.81
2024-04-30T13:59:49.696Z,97795.16
2024-04-30T14:02:18.353Z,97795.88
2024-04-30T14:04:45.435Z,97797.44
2024-04-30T14:07:12.362Z,97784.75
2024-04-30T14:09:39.935Z,97788.59
2024-04-30T14:12:07.664Z,97792.69
2024-04-30T14:14:38.341Z,97786.53
2024-04-30T14:17:05.613Z,97777.63
2024-04-30T14:19:35.019Z,97776.78
2024-04-30T14:22:02.510Z,97779.34
2024-04-30T14:24:29.270Z,97768.84
2024-04-30T14:26:56.109Z,97769.22
2024-04-30T14:29:22.844Z,97764.94
2024-04-30T14:31:49.627Z,97769.06
2024-04-30T14:34:16.512Z,97777.22
2024-04-30T14:36:45.471Z,97769.59
2024-04-30T14:39:12.646Z,97768.66
2024-04-30T14:41:42.094Z,97763.41
2024-04-30T14:44:08.832Z,97762.63
2024-04-30T14:46:36.025Z,97762.94
2024-04-30T14:49:02.942Z,97762.13
2024-04-30T14:51:37.460Z,97742.09
2024-04-30T14:54:05.137Z,97744.63
2024-04-30T14:56:32.927Z,97734.09
2024-04-30T14:59:03.095Z,97736.78
2024-04-30T15:01:30.187Z,97735.28
2024-04-30T15:03:57.342Z,97740.94
2024-04-30T15:06:24.311Z,97738.16
2024-04-30T15:08:51.376Z,97727.75
2024-04-30T15:11:22.012Z,97734.56
2024-04-30T15:13:49.308Z,97732.63
2024-04-30T15:16:17.075Z,97727.38
2024-04-30T15:18:44.566Z,97729.94
2024-04-30T15:21:11.522Z,97733.81
2024-04-30T15:23:41.953Z,97735.13
2024-04-30T15:26:12.351Z,97722.22
2024-04-30T15:28:39.600Z,97723.22
2024-04-30T15:31:06.656Z,97725.38
2024-04-30T15:33:34.009Z,97716.28
2024-04-30T15:36:05.586Z,97713.78
2024-04-30T15:38:32.344Z,97718.88
2024-04-30T15:41:00.376Z,97719.81
2024-04-30T15:43:29.874Z,97707.25
2024-04-30T15:45:57.105Z,97714.41
2024-04-30T15:48:24.538Z,97707.22
2024-04-30T15:50:51.648Z,97697.53
2024-04-30T15:53:22.135Z,97701.47
2024-04-30T15:56:04.844Z,97694.53
2024-04-30T15:58:36.207Z,97700.28
2024-04-30T16:01:03.084Z,97689.78
2024-04-30T16:03:30.231Z,97692.88
2024-04-30T16:05:57.071Z,97686.16
2024-04-30T16:08:23.790Z,97678.16
2024-04-30T16:10:50.551Z,97683.78
2024-04-30T16:13:19.612Z,97677.81
2024-04-30T16:15:48.195Z,97679.97
2024-04-30T16:18:16.910Z,97684.19
2024-04-30T16:20:43.745Z,97672.84
2024-04-30T16:23:10.520Z,97682.34
2024-04-30T16:25:37.717Z,97666.19
2024-04-30T16:28:05.372Z,97671.09
2024-04-30T16:30:32.255Z,97662.91
2024-04-30T16:32:59.130Z,97663.53
2024-04-30T16:35:25.919Z,97660.28
2024-04-30T16:37:52.628Z,97660.28
2024-04-30T16:40:19.462Z,97664.59
2024-04-30T16:42:46.472Z,97661.66
2024-04-30T16:45:13.393Z,97662.63
2024-04-30T16:47:40.152Z,97660.94
2024-04-30T16:50:07.088Z,97662.31
2024-04-30T16:52:35.455Z,97656.91
2024-04-30T16:55:02.342Z,97664.16
2024-04-30T16:57:29.181Z,97661.63
2024-04-30T16:59:55.970Z,97662.78
2024-04-30T17:02:23.093Z,97663.03
2024-04-30T17:04:50.070Z,97672.16
2024-04-30T17:07:16.844Z,97669.03
2024-04-30T17:09:43.575Z,97669.50
2024-04-30T17:12:10.404Z,97684.34
2024-04-30T17:14:37.328Z,97680.09
2024-04-30T17:17:04.454Z,97675.09
2024-04-30T17:19:31.419Z,97673.09
2024-04-30T17:21:58.211Z,97673.44
2024-04-30T17:24:25.244Z,97674.50
2024-04-30T17:26:51.999Z,97679.13
2024-04-30T17:29:18.729Z,97686.13
2024-04-30T17:31:46.095Z,97674.72
2024-04-30T17:34:12.980Z,97681.19
2024-04-30T17:36:45.250Z,97683.84
2024-04-30T17:39:14.209Z,97679.31
2024-04-30T17:41:41.260Z,97681.56
2024-04-30T17:44:08.042Z,97678.44
2024-04-30T17:46:39.854Z,97676.38
2024-04-30T17:49:09.767Z,97685.78
2024-04-30T17:51:41.072Z,97687.72
2024-04-30T17:54:07.931Z,97690.41
2024-04-30T17:56:38.671Z,97693.84
2024-04-30T17:59:05.411Z,97693.84
2024-04-30T18:01:32.327Z,97689.56
2024-04-30T18:03:59.345Z,97685.25
2024-04-30T18:06:28.311Z,97695.44
2024-04-30T18:08:58.540Z,97694.75
2024-04-30T18:11:29.160Z,97688.63
2024-04-30T18:13:56.849Z,97695.72
2024-04-30T18:16:23.871Z,97701.72
2024-04-30T18:18:51.784Z,97701.03
2024-04-30T18:21:19.550Z,97693.03
2024-04-30T18:23:46.845Z,97698.47
2024-04-30T18:26:14.465Z,97702.75
2024-04-30T18:28:55.334Z,97702.16
2024-04-30T18:31:23.840Z,97699.00
2024-04-30T18:33:52.929Z,97716.25
2024-04-30T18:36:21.645Z,97716.34
2024-04-30T18:38:48.352Z,97718.38
2024-04-30T18:41:21.072Z,97729.88
2024-04-30T18:43:56.216Z,97729.88
2024-04-30T18:46:22.932Z,97731.56
2024-04-30T18:48:49.885Z,97738.72
2024-04-30T18:51:17.910Z,97733.25
2024-04-30T18:53:44.830Z,97739.16
2024-04-30T18:56:17.308Z,97744.41
2024-04-30T18:58:45.488Z,97734.91
2024-04-30T19:01:12.874Z,97751.53
2024-04-30T19:03:39.854Z,97752.16
2024-04-30T19:06:11.222Z,97748.78
2024-04-30T19:08:38.429Z,97747.75
2024-04-30T19:11:07.000Z,97740.41
2024-04-30T19:13:34.457Z,97742.94
2024-04-30T19:16:02.423Z,97747.56
2024-04-30T19:18:29.481Z,97752.59
2024-04-30T19:20:56.460Z,97746.25
2024-04-30T19:23:32.795Z,97743.31
2024-04-30T19:26:01.745Z,97747.91
2024-04-30T19:28:28.737Z,97748.03
2024-04-30T19:30:55.659Z,97754.50
2024-04-30T19:33:22.640Z,97751.16
2024-04-30T19:35:49.553Z,97751.50
2024-04-30T19:38:17.806Z,97756.06
2024-04-30T19:40:45.399Z,97759.06
2024-04-30T19:43:16.138Z,97757.44
2024-04-30T19:45:43.325Z,97764.22
2024-04-30T19:48:15.294Z,97759.38
2024-04-30T19:50:44.682Z,97754.72
2024-04-30T19:53:11.421Z,97761.72
2024-04-30T19:55:38.113Z,97750.41
2024-04-30T19:58:04.976Z,97760.34
2024-04-30T20:00:31.899Z,97750.00
2024-04-30T20:02:59.212Z,97750.44
2024-04-30T20:05:26.051Z,97747.69
2024-04-30T20:07:53.064Z,97750.34
2024-04-30T20:10:19.811Z,97755.63
2024-04-30T20:12:46.587Z,97744.31
2024-04-30T20:15:13.409Z,97741.47
2024-04-30T20:17:40.214Z,97743.16
2024-04-30T20:20:07.101Z,97740.44
2024-04-30T20:22:33.845Z,97731.22
2024-04-30T20:25:00.719Z,97730.69
2024-04-30T20:27:27.535Z,97731.78
2024-04-30T20:29:54.353Z,97717.56
2024-04-30T20:32:21.186Z,97709.28
2024-04-30T20:34:48.009Z,97719.75
2024-04-30T20:37:14.708Z,97714.63
2024-04-30T20:39:41.526Z,97715.53
2024-04-30T20:42:08.326Z,97714.59
2024-04-30T20:44:35.021Z,97712.09
2024-04-30T20:47:01.787Z,97714.13
2024-04-30T20:49:28.522Z,97717.78
2024-04-30T20:51:55.472Z,97711.50
2024-04-30T20:54:22.365Z,97706.72
2024-04-30T20:56:49.154Z,97712.25
2024-04-30T20:59:15.950Z,97701.28
2024-04-30T21:01:43.473Z,97705.59
2024-04-30T21:04:10.406Z,97704.84
2024-04-30T21:06:40.258Z,97706.53
2024-04-30T21:09:07.091Z,97696.78
2024-04-30T21:11:33.918Z,97698.09
2024-04-30T21:14:00.631Z,97700.53
2024-04-30T21:16:27.367Z,97702.22
2024-04-30T21:18:54.389Z,97706.72
2024-04-30T21:21:21.375Z,97691.69
2024-04-30T21:23:48.089Z,97703.06
2024-04-30T21:26:14.795Z,97698.50
2024-04-30T21:28:41.508Z,97696.56
2024-04-30T21:31:08.430Z,97698.97
2024-04-30T21:33:35.323Z,97708.56
2024-04-30T21:36:05.803Z,97701.34
2024-04-30T21:38:34.369Z,97701.81
2024-04-30T21:41:01.093Z,97696.69
2024-04-30T21:43:27.844Z,97690.31
2024-04-30T21:45:54.621Z,97692.56
2024-04-30T21:48:21.640Z,97685.88
2024-04-30T21:50:48.477Z,97688.31
2024-04-30T21:53:15.266Z,97690.31
2024-04-30T21:55:42.038Z,97693.06
2024-04-30T21:58:08.770Z,97682.84
2024-04-30T22:00:35.634Z,97691.06
2024-04-30T22:03:03.554Z,97692.28
2024-04-30T22:05:30.798Z,97688.50
2024-04-30T22:07:57.929Z,97692.84
2024-04-30T22:10:24.817Z,97692.34
2024-04-30T22:12:51.731Z,97695.84
2024-04-30T22:15:19.291Z,97691.31
2024-04-30T22:17:46.679Z,97695.66
2024-04-30T22:20:14.079Z,97690.88
2024-04-30T22:22:40.823Z,97697.41
2024-04-30T22:25:07.814Z,97694.41
2024-04-30T22:27:35.147Z,97690.53
2024-04-30T22:30:09.199Z,97705.03
2024-04-30T22:32:44.716Z,97701.25
2024-04-30T22:35:11.765Z,97702.19
2024-04-30T22:37:38.495Z,97711.44
2024-04-30T22:40:05.890Z,97712.50
2024-04-30T22:42:32.902Z,97701.72
2024-04-30T22:45:00.072Z,97694.84
2024-04-30T22:47:26.915Z,97694.06
2024-04-30T22:49:53.851Z,97701.97
2024-04-30T22:52:20.738Z,97701.34
2024-04-30T22:54:50.952Z,97693.25
2024-04-30T22:57:18.309Z,97687.31
2024-04-30T22:59:44.995Z,97681.88
2024-04-30T23:02:11.927Z,97682.13
2024-04-30T23:04:38.757Z,97681.50
2024-04-30T23:07:05.621Z,97687.41
2024-04-30T23:09:32.540Z,97678.94
2024-04-30T23:11:59.378Z,97675.59
2024-04-30T23:14:26.102Z,97670.03
2024-04-30T23:16:52.855Z,97678.88
2024-04-30T23:19:19.716Z,97673.41
2024-04-30T23:21:46.973Z,97672.75
2024-04-30T23:24:14.076Z,97663.91
2024-04-30T23:26:40.777Z,97661.00
2024-04-30T23:29:07.640Z,97658.75
2024-04-30T23:31:34.516Z,97657.53
2024-04-30T23:34:01.389Z,97648.38
2024-04-30T23:36:28.155Z,97640.53
2024-04-30T23:38:54.880Z,97647.81
2024-04-30T23:41:21.678Z,97638.63
2024-04-30T23:43:48.359Z,97643.25
2024-04-30T23:46:15.030Z,97636.19
2024-04-30T23:48:41.741Z,97637.53
2024-04-30T23:51:12.633Z,97635.44
2024-04-30T23:53:43.710Z,97633.63
2024-04-30T23:56:12.175Z,97628.81
2024-04-30T23:58:39.186Z,97636.81
